Terminal Aerodrome Forecast
Issued by NWS

Home | Current Version | Previous Version | Text Only | Print | Product List | Glossary On
Versions: 1 2 3 4 5 6 7 8 9 10 11 12 13 14 15 16 17 18 19 20 21
000
FTUS43 KJKL 260225 AAA
TAFSJS
TAF AMD
KSJS 260225Z 2602/2624 26006KT P6SM VCSH BKN013 BKN030 OVC050
     FM260600 26008KT P6SM VCSH OVC020
     FM261000 26006KT P6SM SCT025 SCT150=

USA.gov is the U.S. government's official web portal to all federal, state and local government web resources and services.